Terminal Aerodrome Forecast
Issued by NWS

Home | Current Version | Previous Version | Text Only | Print | Product List | Glossary Off
Versions: 1 2 3 4 5 6 7 8 9 10 11 12 13 14

000
FTUS43 KMPX 280520
TAFRWF
TAF
KRWF 280520Z 2806/0106 19008KT P6SM SKC
     FM281800 17015G21KT P6SM SCT040 BKN070
     FM010100 19012KT P6SM OVC030=

USA.gov is the U.S. government's official web portal to all federal, state and local government web resources and services.